Main page
METAR-TAF:

METAR-TAF

Airports :

Mariehamn Airport

Mariehamn, Finland

latitude: 60-07N, longitude: 019-54E, elevation: 6 m

Current weather observation

The report was made 9 minutes ago, at 02:20 UTC
Calm wind
Temperature 5°C
Humidity 100%
Pressure 1024 hPa
Visibility 10 km or more
no clouds below 1500 m and no cumulonimbus

METAR: EFMA 220220Z AUTO 00000KT CAVOK 05/05 Q1024

Time: 05:29 (02:29 UTC)

Forecast

The report was made 3 hours and 5 minutes ago, at 23:24 UTC
Forecast valid from 22 at 00 UTC to 22 at 09 UTC
Wind 7 kt from the South
Visibility 10 km or more
no clouds below 1500 m and no cumulonimbus

TAF: EFMA 212324Z 2200/2209 19007KT CAVOK

Weather observations and forecasts of more than 4000 airports (METAR and TAF reports).

The available stations are represented by yellow and red dots on the map.

Hover mouse over dot to see the name of the station.

Then click to see weather observations and forecasts.

To change the map : click on the green buttons with a black cross to zoom in, on the green button with a dash to zoom out, or on the green arrows for adjacent maps.


METAR-TAF: